Time;durP1;ratioP1;P1;durP2;ratioP2;P2;SDS_P1;SDS_P2;PMS_P1;PMS_P2;Temp;Humidity;BMP_temperature;BMP_pressure;BME280_temperature;BME280_humidity;BME280_pressure;Samples;Min_cycle;Max_cycle;Signal;HPM_P1;HPM_P2
2021/06/24 00:01:34;;;;;;;10.90;6.28;;;;;;;;;;5016327;28;20037;-64
2021/06/24 00:04:00;;;;;;;7.38;6.03;;;;;;;;;;5016559;28;20037;-63
2021/06/24 00:06:25;;;;;;;6.22;5.30;;;;;;;;;;5009360;28;20115;-63
2021/06/24 00:08:51;;;;;;;10.63;5.30;;;;;;;;;;5022892;28;20649;-63
2021/06/24 00:11:17;;;;;;;8.27;5.00;;;;;;;;;;5017160;28;20060;-63
2021/06/24 00:13:43;;;;;;;7.10;4.78;;;;;;;;;;5017783;28;21629;-63
2021/06/24 00:16:08;;;;;;;9.85;5.57;;;;;;;;;;5012604;28;20071;-63
2021/06/24 00:18:34;;;;;;;6.65;5.10;;;;;;;;;;5011928;28;20058;-63
2021/06/24 00:21:00;;;;;;;7.28;5.55;;;;;;;;;;5019013;28;20038;-63
2021/06/24 00:23:26;;;;;;;10.48;6.13;;;;;;;;;;5012429;28;20033;-63
2021/06/24 00:25:51;;;;;;;9.80;6.53;;;;;;;;;;5014980;28;20042;-63
2021/06/24 00:28:18;;;;;;;14.85;7.88;;;;;;;;;;5013017;28;20420;-63
2021/06/24 00:30:48;;;;;;;7.85;6.50;;;;;;;;;;5017371;28;20079;-63
2021/06/24 00:33:14;;;;;;;13.20;7.10;;;;;;;;;;5016498;28;20042;-65
2021/06/24 00:35:40;;;;;;;12.25;7.38;;;;;;;;;;5016173;28;20036;-64
2021/06/24 00:38:06;;;;;;;14.30;8.52;;;;;;;;;;5013554;28;20021;-64
2021/06/24 00:40:36;;;;;;;16.13;8.88;;;;;;;;;;5015357;28;20179;-64
2021/06/24 00:43:02;;;;;;;16.55;8.77;;;;;;;;;;5018343;28;20029;-64
2021/06/24 00:45:28;;;;;;;19.80;8.80;;;;;;;;;;5011601;28;20485;-65
2021/06/24 00:47:53;;;;;;;16.27;6.50;;;;;;;;;;5016283;28;20048;-64
2021/06/24 00:50:19;;;;;;;11.18;5.32;;;;;;;;;;5017336;28;20037;-64
2021/06/24 00:52:44;;;;;;;15.65;6.00;;;;;;;;;;5014079;28;20161;-65
2021/06/24 00:55:10;;;;;;;21.02;5.05;;;;;;;;;;5015360;28;20045;-65
2021/06/24 00:57:36;;;;;;;10.60;4.85;;;;;;;;;;5022721;28;20037;-65
2021/06/24 01:00:04;;;;;;;11.70;4.55;;;;;;;;;;5017701;28;20109;-65
2021/06/24 01:02:31;;;;;;;13.45;4.53;;;;;;;;;;5022081;28;20033;-64
2021/06/24 01:04:56;;;;;;;9.95;4.72;;;;;;;;;;5026799;28;20479;-64
2021/06/24 01:07:23;;;;;;;17.55;5.53;;;;;;;;;;5020131;28;20125;-65
2021/06/24 01:09:49;;;;;;;12.63;5.80;;;;;;;;;;5019076;28;20108;-64
2021/06/24 01:12:15;;;;;;;15.77;4.68;;;;;;;;;;5013980;28;20164;-63
2021/06/24 01:14:41;;;;;;;12.40;4.53;;;;;;;;;;5018130;28;20214;-65
2021/06/24 01:17:07;;;;;;;9.48;5.30;;;;;;;;;;5014228;28;20504;-65
2021/06/24 01:19:32;;;;;;;16.08;4.82;;;;;;;;;;5016431;28;20045;-65
2021/06/24 01:21:59;;;;;;;14.05;5.60;;;;;;;;;;5016497;28;20408;-64
2021/06/24 01:24:25;;;;;;;19.23;5.22;;;;;;;;;;5019405;28;20021;-64
2021/06/24 01:26:50;;;;;;;19.27;4.82;;;;;;;;;;5021774;28;20037;-65
2021/06/24 01:29:16;;;;;;;15.35;5.32;;;;;;;;;;5014110;28;20022;-65
2021/06/24 01:31:42;;;;;;;14.63;4.75;;;;;;;;;;5018213;28;20043;-67
2021/06/24 01:34:10;;;;;;;14.38;5.38;;;;;;;;;;5017344;28;20022;-64
2021/06/24 01:36:36;;;;;;;13.07;5.20;;;;;;;;;;5014677;28;20053;-63
2021/06/24 01:39:04;;;;;;;11.00;5.25;;;;;;;;;;5017140;28;20297;-64
2021/06/24 01:41:30;;;;;;;14.30;5.93;;;;;;;;;;5017745;28;20447;-64
2021/06/24 01:43:55;;;;;;;20.20;6.38;;;;;;;;;;5020745;28;20033;-63
2021/06/24 01:46:21;;;;;;;17.38;6.55;;;;;;;;;;5023531;28;20088;-64
2021/06/24 01:48:47;;;;;;;15.63;6.15;;;;;;;;;;5000626;28;20053;-63
2021/06/24 01:51:12;;;;;;;13.20;6.32;;;;;;;;;;5019836;28;20033;-63
2021/06/24 01:53:38;;;;;;;15.43;6.65;;;;;;;;;;5021088;28;20025;-64
2021/06/24 01:56:04;;;;;;;16.35;7.15;;;;;;;;;;5022557;28;20053;-64
2021/06/24 01:58:29;;;;;;;18.77;8.63;;;;;;;;;;5014793;28;20049;-64
2021/06/24 02:00:57;;;;;;;17.08;7.47;;;;;;;;;;5020533;28;20049;-63
2021/06/24 02:03:25;;;;;;;17.08;7.22;;;;;;;;;;5019044;28;20516;-65
2021/06/24 02:05:54;;;;;;;21.52;7.03;;;;;;;;;;5023037;28;20116;-66
2021/06/24 02:08:25;;;;;;;12.25;6.68;;;;;;;;;;5013564;28;20036;-66
2021/06/24 02:10:53;;;;;;;17.38;8.20;;;;;;;;;;5018087;28;20029;-66
2021/06/24 02:13:18;;;;;;;17.42;7.05;;;;;;;;;;5014999;28;20143;-65
2021/06/24 02:15:44;;;;;;;16.23;7.70;;;;;;;;;;5013749;28;20186;-65
2021/06/24 02:18:10;;;;;;;16.60;6.95;;;;;;;;;;5021643;28;20022;-64
2021/06/24 02:20:37;;;;;;;11.43;7.53;;;;;;;;;;5017249;28;20044;-64
2021/06/24 02:23:03;;;;;;;15.30;7.75;;;;;;;;;;5017538;28;20037;-66
2021/06/24 02:25:29;;;;;;;13.27;7.25;;;;;;;;;;5023320;28;20022;-65
2021/06/24 02:27:55;;;;;;;19.75;8.15;;;;;;;;;;5018079;28;20037;-64
2021/06/24 02:30:21;;;;;;;19.20;7.32;;;;;;;;;;5021313;28;20037;-65
2021/06/24 02:32:47;;;;;;;13.38;7.72;;;;;;;;;;5013521;28;20550;-64
2021/06/24 02:35:14;;;;;;;15.63;7.85;;;;;;;;;;5016349;28;20052;-67
2021/06/24 02:37:41;;;;;;;17.00;7.60;;;;;;;;;;5023915;28;20579;-66
2021/06/24 02:40:09;;;;;;;15.10;7.55;;;;;;;;;;5012943;28;20065;-65
2021/06/24 02:42:35;;;;;;;17.95;8.25;;;;;;;;;;5022150;28;20059;-65
2021/06/24 02:45:00;;;;;;;19.75;7.90;;;;;;;;;;5017306;28;20033;-65
2021/06/24 02:47:26;;;;;;;16.55;7.47;;;;;;;;;;5019532;28;20484;-65
2021/06/24 02:49:52;;;;;;;17.50;8.38;;;;;;;;;;5016412;28;20025;-65
2021/06/24 02:52:18;;;;;;;12.30;8.25;;;;;;;;;;5016523;28;20037;-65
2021/06/24 02:54:43;;;;;;;18.88;8.55;;;;;;;;;;5010789;28;20033;-65
2021/06/24 02:57:09;;;;;;;24.13;8.75;;;;;;;;;;5012215;28;20034;-64
2021/06/24 02:59:35;;;;;;;14.73;7.68;;;;;;;;;;5016043;28;20500;-64
2021/06/24 03:02:00;;;;;;;19.55;7.68;;;;;;;;;;5020161;28;20045;-66
2021/06/24 03:04:26;;;;;;;22.02;8.82;;;;;;;;;;5016422;28;20024;-65
2021/06/24 03:06:53;;;;;;;21.45;8.10;;;;;;;;;;5019762;28;20079;-66
2021/06/24 03:09:19;;;;;;;17.77;8.02;;;;;;;;;;5020340;28;20467;-65
2021/06/24 03:11:46;;;;;;;12.73;7.35;;;;;;;;;;5021438;28;20485;-65
2021/06/24 03:14:11;;;;;;;19.85;7.78;;;;;;;;;;5016934;28;20536;-65
2021/06/24 03:16:37;;;;;;;18.40;8.18;;;;;;;;;;5017789;28;20068;-64
2021/06/24 03:19:03;;;;;;;18.40;8.15;;;;;;;;;;5012537;28;20033;-66
2021/06/24 03:21:29;;;;;;;14.60;8.10;;;;;;;;;;5014250;28;20489;-65
2021/06/24 03:23:54;;;;;;;18.55;8.48;;;;;;;;;;5023448;28;20091;-65
2021/06/24 03:26:20;;;;;;;28.52;9.18;;;;;;;;;;5017523;28;20030;-66
2021/06/24 03:28:45;;;;;;;17.63;8.93;;;;;;;;;;5015960;28;20084;-66
2021/06/24 03:31:11;;;;;;;15.60;8.30;;;;;;;;;;5011811;28;20080;-65
2021/06/24 03:33:37;;;;;;;18.02;8.20;;;;;;;;;;5014902;28;20273;-65
2021/06/24 03:36:03;;;;;;;23.05;9.15;;;;;;;;;;5012682;28;20088;-65
2021/06/24 03:38:29;;;;;;;22.13;9.35;;;;;;;;;;5015445;28;20029;-65
2021/06/24 03:40:55;;;;;;;19.85;8.77;;;;;;;;;;5011894;28;20523;-66
2021/06/24 03:43:20;;;;;;;21.63;9.80;;;;;;;;;;5018684;28;20337;-66
2021/06/24 03:45:46;;;;;;;18.20;8.80;;;;;;;;;;5014899;28;20289;-65
2021/06/24 03:48:11;;;;;;;22.95;9.15;;;;;;;;;;5011518;28;20033;-66
2021/06/24 03:50:37;;;;;;;23.75;9.32;;;;;;;;;;5008109;28;20057;-66
2021/06/24 03:53:03;;;;;;;19.65;8.57;;;;;;;;;;5014113;28;20040;-66
2021/06/24 03:55:38;;;;;;;14.90;8.68;;;;;;;;;;5019101;28;20025;-65
2021/06/24 03:58:05;;;;;;;24.42;9.73;;;;;;;;;;5017022;28;20034;-65
2021/06/24 04:00:35;;;;;;;21.08;10.10;;;;;;;;;;5014673;28;20045;-65
2021/06/24 04:03:00;;;;;;;21.30;9.63;;;;;;;;;;5011407;28;20517;-64
2021/06/24 04:05:29;;;;;;;21.05;9.65;;;;;;;;;;5018259;28;20029;-65
2021/06/24 04:07:55;;;;;;;21.38;9.52;;;;;;;;;;5018011;28;20527;-67
2021/06/24 04:10:20;;;;;;;22.13;11.10;;;;;;;;;;5012386;28;20025;-66
2021/06/24 04:12:46;;;;;;;21.10;11.00;;;;;;;;;;5011259;28;20057;-66
2021/06/24 04:15:12;;;;;;;20.27;11.02;;;;;;;;;;5016694;28;20087;-65
2021/06/24 04:17:38;;;;;;;21.58;11.35;;;;;;;;;;5018847;28;20038;-67
2021/06/24 04:20:05;;;;;;;24.65;11.60;;;;;;;;;;5013147;28;20048;-67
2021/06/24 04:22:30;;;;;;;23.58;12.25;;;;;;;;;;5016430;28;20108;-66
2021/06/24 04:24:56;;;;;;;21.80;10.55;;;;;;;;;;5013467;28;20029;-66
2021/06/24 04:27:21;;;;;;;23.58;12.35;;;;;;;;;;5013029;28;20065;-66
2021/06/24 04:29:47;;;;;;;20.33;12.07;;;;;;;;;;5016679;28;20120;-67
2021/06/24 04:32:12;;;;;;;22.85;12.23;;;;;;;;;;5019437;28;20025;-66
2021/06/24 04:34:38;;;;;;;24.58;12.15;;;;;;;;;;5018656;28;20585;-67
2021/06/24 04:37:03;;;;;;;23.40;11.23;;;;;;;;;;5019351;28;20034;-67
2021/06/24 04:39:29;;;;;;;23.00;12.43;;;;;;;;;;5013638;28;20112;-67
2021/06/24 04:41:55;;;;;;;26.45;12.85;;;;;;;;;;5018085;28;20492;-67
2021/06/24 04:44:20;;;;;;;21.85;13.00;;;;;;;;;;5018500;28;20022;-67
2021/06/24 04:46:46;;;;;;;23.35;12.77;;;;;;;;;;5018716;28;20087;-67
2021/06/24 04:49:11;;;;;;;27.90;12.68;;;;;;;;;;5018472;28;20037;-67
2021/06/24 04:51:37;;;;;;;29.60;12.38;;;;;;;;;;5017168;28;20451;-66
2021/06/24 04:54:03;;;;;;;25.63;12.23;;;;;;;;;;5018787;28;20095;-66
2021/06/24 04:56:28;;;;;;;22.38;12.70;;;;;;;;;;5015896;28;20030;-67
2021/06/24 04:58:54;;;;;;;21.08;12.05;;;;;;;;;;5015982;28;20060;-65
2021/06/24 05:01:19;;;;;;;21.75;11.35;;;;;;;;;;5019260;28;20497;-65
2021/06/24 05:03:45;;;;;;;20.45;10.73;;;;;;;;;;5024518;28;20018;-66
2021/06/24 05:06:11;;;;;;;20.25;10.38;;;;;;;;;;5013225;28;20503;-65
2021/06/24 05:08:37;;;;;;;19.45;11.05;;;;;;;;;;5015865;28;20041;-65
2021/06/24 05:11:03;;;;;;;22.05;10.50;;;;;;;;;;5020192;28;20587;-65
2021/06/24 05:13:28;;;;;;;23.42;9.48;;;;;;;;;;5023653;28;20073;-66
2021/06/24 05:15:54;;;;;;;17.15;9.45;;;;;;;;;;5018837;28;20033;-66
2021/06/24 05:18:20;;;;;;;16.42;10.02;;;;;;;;;;5016147;28;20029;-65
2021/06/24 05:20:46;;;;;;;21.33;11.38;;;;;;;;;;5013273;28;20124;-65
2021/06/24 05:23:16;;;;;;;21.40;11.05;;;;;;;;;;5020119;28;20108;-66
2021/06/24 05:25:43;;;;;;;21.33;11.63;;;;;;;;;;5025439;28;20040;-66
2021/06/24 05:28:08;;;;;;;18.08;10.45;;;;;;;;;;5013774;28;20484;-66
2021/06/24 05:30:34;;;;;;;20.55;10.25;;;;;;;;;;5022654;28;20042;-65
2021/06/24 05:33:00;;;;;;;18.45;9.13;;;;;;;;;;5013997;28;20044;-66
2021/06/24 05:35:26;;;;;;;17.77;10.15;;;;;;;;;;5018913;28;20025;-66
2021/06/24 05:37:51;;;;;;;21.67;9.50;;;;;;;;;;5018088;28;20033;-65
2021/06/24 05:40:17;;;;;;;23.17;9.82;;;;;;;;;;5019204;28;20382;-65
2021/06/24 05:42:42;;;;;;;20.00;9.95;;;;;;;;;;5018091;28;20064;-63
2021/06/24 05:45:08;;;;;;;20.23;10.77;;;;;;;;;;5021868;28;20413;-63
2021/06/24 05:47:34;;;;;;;22.30;11.10;;;;;;;;;;5017262;28;20128;-63
2021/06/24 05:50:00;;;;;;;18.73;10.75;;;;;;;;;;5012411;28;20136;-64
2021/06/24 05:52:25;;;;;;;18.65;10.30;;;;;;;;;;5016277;28;20056;-64
2021/06/24 05:54:51;;;;;;;17.80;10.57;;;;;;;;;;5018661;28;20033;-63
2021/06/24 05:57:16;;;;;;;17.58;9.45;;;;;;;;;;5022106;28;20091;-63
2021/06/24 05:59:42;;;;;;;18.92;10.20;;;;;;;;;;5022598;28;20493;-63
2021/06/24 06:02:07;;;;;;;17.08;9.88;;;;;;;;;;5012654;28;20038;-64
2021/06/24 06:04:33;;;;;;;15.07;8.98;;;;;;;;;;5016398;28;20030;-64
2021/06/24 06:06:58;;;;;;;22.30;10.32;;;;;;;;;;5004511;28;20048;-64
2021/06/24 06:09:24;;;;;;;22.67;9.38;;;;;;;;;;5017966;28;20025;-64
2021/06/24 06:11:49;;;;;;;19.25;9.55;;;;;;;;;;5017056;28;20032;-63
2021/06/24 06:14:15;;;;;;;23.38;10.43;;;;;;;;;;5015910;28;20053;-67
2021/06/24 06:16:41;;;;;;;20.48;9.50;;;;;;;;;;5016231;28;20449;-65
2021/06/24 06:19:07;;;;;;;13.95;9.18;;;;;;;;;;5016950;28;20113;-65
2021/06/24 06:21:32;;;;;;;13.43;8.38;;;;;;;;;;5013644;28;20120;-65
2021/06/24 06:23:58;;;;;;;17.17;8.02;;;;;;;;;;5014480;28;20042;-65
2021/06/24 06:26:24;;;;;;;14.50;8.88;;;;;;;;;;5018213;28;20037;-65
2021/06/24 06:28:50;;;;;;;15.98;8.40;;;;;;;;;;5021373;28;20522;-66
2021/06/24 06:31:17;;;;;;;16.52;8.27;;;;;;;;;;5012563;28;20400;-65
2021/06/24 06:33:42;;;;;;;18.85;8.75;;;;;;;;;;5018876;28;20045;-65
2021/06/24 06:36:08;;;;;;;15.35;8.18;;;;;;;;;;5015529;28;20108;-65
2021/06/24 06:38:33;;;;;;;23.15;8.93;;;;;;;;;;5016148;28;20037;-65
2021/06/24 06:40:59;;;;;;;22.35;7.75;;;;;;;;;;5016878;28;20036;-66
2021/06/24 06:43:24;;;;;;;19.90;9.15;;;;;;;;;;5019986;28;20033;-66
2021/06/24 06:45:50;;;;;;;19.02;8.10;;;;;;;;;;5012397;28;20555;-65
2021/06/24 06:48:16;;;;;;;16.02;7.70;;;;;;;;;;5014609;28;20041;-65
2021/06/24 06:50:42;;;;;;;16.48;7.65;;;;;;;;;;5021523;28;20080;-66
2021/06/24 06:53:08;;;;;;;12.98;7.32;;;;;;;;;;5017746;28;20107;-64
2021/06/24 06:55:34;;;;;;;18.70;8.13;;;;;;;;;;5018085;28;20492;-66
2021/06/24 06:58:00;;;;;;;21.27;7.07;;;;;;;;;;5015879;28;20512;-66
2021/06/24 07:00:29;;;;;;;13.10;5.95;;;;;;;;;;5015294;28;20068;-66
2021/06/24 07:02:54;;;;;;;17.80;6.60;;;;;;;;;;5015549;28;20409;-65
2021/06/24 07:05:20;;;;;;;10.13;6.03;;;;;;;;;;5011929;28;20052;-64
2021/06/24 07:07:46;;;;;;;12.90;6.65;;;;;;;;;;5015936;28;20030;-66
2021/06/24 07:10:12;;;;;;;12.60;5.78;;;;;;;;;;5010084;28;20307;-66
2021/06/24 07:12:38;;;;;;;17.35;6.07;;;;;;;;;;5015407;28;20514;-64
2021/06/24 07:15:04;;;;;;;9.80;5.38;;;;;;;;;;5018131;28;20129;-65
2021/06/24 07:17:30;;;;;;;14.93;7.25;;;;;;;;;;5014965;28;20029;-66
2021/06/24 07:19:55;;;;;;;16.63;7.05;;;;;;;;;;5018871;28;20511;-65
2021/06/24 07:22:21;;;;;;;18.27;7.75;;;;;;;;;;5019576;28;20033;-64
2021/06/24 07:24:46;;;;;;;18.00;8.00;;;;;;;;;;5015288;28;20029;-66
2021/06/24 07:27:12;;;;;;;16.70;8.70;;;;;;;;;;5023600;28;20034;-65
2021/06/24 07:29:37;;;;;;;14.65;8.05;;;;;;;;;;5026322;28;20033;-65
2021/06/24 07:32:03;;;;;;;12.75;6.85;;;;;;;;;;5018715;28;20040;-66
2021/06/24 07:34:29;;;;;;;12.95;7.05;;;;;;;;;;5014934;28;20033;-65
2021/06/24 07:36:54;;;;;;;9.27;5.78;;;;;;;;;;5015893;28;20045;-65
2021/06/24 07:39:20;;;;;;;12.75;5.57;;;;;;;;;;5013043;28;20484;-65
2021/06/24 07:41:45;;;;;;;12.35;5.18;;;;;;;;;;5021502;28;20104;-65
2021/06/24 07:44:11;;;;;;;10.68;5.63;;;;;;;;;;5020039;28;20033;-63
2021/06/24 07:46:37;;;;;;;12.57;5.70;;;;;;;;;;5015891;28;20424;-63
2021/06/24 07:49:03;;;;;;;8.68;5.20;;;;;;;;;;5011792;28;20440;-63
2021/06/24 07:51:28;;;;;;;9.60;5.88;;;;;;;;;;5017645;28;20041;-63
2021/06/24 07:53:54;;;;;;;11.85;4.93;;;;;;;;;;5014985;28;20025;-62
2021/06/24 07:56:19;;;;;;;10.82;4.07;;;;;;;;;;5014937;28;20045;-63
2021/06/24 07:58:46;;;;;;;9.10;4.22;;;;;;;;;;5015708;28;20026;-64
2021/06/24 08:01:12;;;;;;;11.30;4.30;;;;;;;;;;5011442;28;20034;-63
2021/06/24 08:03:37;;;;;;;8.77;4.40;;;;;;;;;;5015042;28;20396;-64
2021/06/24 08:06:04;;;;;;;9.15;4.32;;;;;;;;;;5016799;28;20352;-64
2021/06/24 08:08:30;;;;;;;10.75;3.97;;;;;;;;;;5014482;28;20103;-64
2021/06/24 08:10:56;;;;;;;13.02;3.78;;;;;;;;;;5014021;28;20025;-63
2021/06/24 08:13:25;;;;;;;13.23;4.03;;;;;;;;;;5021823;28;20052;-64
2021/06/24 08:15:53;;;;;;;7.75;2.95;;;;;;;;;;5011473;28;20049;-63
2021/06/24 08:18:19;;;;;;;10.10;3.22;;;;;;;;;;5013793;28;20286;-63
2021/06/24 08:20:47;;;;;;;9.05;3.30;;;;;;;;;;5010923;28;20249;-64
2021/06/24 08:23:12;;;;;;;8.60;3.03;;;;;;;;;;5003452;28;20033;-63
2021/06/24 08:25:38;;;;;;;10.80;3.13;;;;;;;;;;5015757;28;20428;-63
2021/06/24 08:28:05;;;;;;;8.57;3.40;;;;;;;;;;5018428;28;20039;-64
2021/06/24 08:30:32;;;;;;;5.78;3.58;;;;;;;;;;5018397;28;20645;-64
2021/06/24 08:32:57;;;;;;;7.38;3.00;;;;;;;;;;5016388;28;20045;-64
2021/06/24 08:35:23;;;;;;;8.57;3.35;;;;;;;;;;5015124;28;20413;-64
2021/06/24 08:37:48;;;;;;;9.57;3.50;;;;;;;;;;5012766;28;20051;-64
2021/06/24 08:40:16;;;;;;;11.10;3.83;;;;;;;;;;5017965;28;20030;-64
2021/06/24 08:42:42;;;;;;;8.60;3.25;;;;;;;;;;5013935;28;20247;-63
2021/06/24 08:45:11;;;;;;;13.77;3.60;;;;;;;;;;5020670;28;20497;-63
2021/06/24 08:47:36;;;;;;;5.18;3.10;;;;;;;;;;5015576;28;20029;-63
2021/06/24 08:50:04;;;;;;;7.72;2.72;;;;;;;;;;5012222;28;20519;-65
2021/06/24 08:52:29;;;;;;;6.95;3.38;;;;;;;;;;5014897;28;20385;-65
2021/06/24 08:54:55;;;;;;;5.93;3.05;;;;;;;;;;5014617;28;20110;-65
2021/06/24 08:57:21;;;;;;;11.40;3.00;;;;;;;;;;5017163;28;20051;-65
2021/06/24 08:59:46;;;;;;;12.00;3.53;;;;;;;;;;5013355;28;20468;-64
2021/06/24 09:02:14;;;;;;;3.97;2.40;;;;;;;;;;5014592;28;20030;-65
2021/06/24 09:04:45;;;;;;;11.07;3.45;;;;;;;;;;5014274;28;20029;-65
2021/06/24 09:07:20;;;;;;;8.77;2.60;;;;;;;;;;5014465;28;20037;-65
2021/06/24 09:09:54;;;;;;;14.68;3.17;;;;;;;;;;5026985;28;20061;-64
2021/06/24 09:12:21;;;;;;;10.13;2.90;;;;;;;;;;5017068;28;20476;-64
2021/06/24 09:14:53;;;;;;;6.25;3.08;;;;;;;;;;5011228;28;20045;-63
2021/06/24 09:17:54;;;;;;;8.02;2.55;;;;;;;;;;5015180;28;20033;-63
2021/06/24 09:20:22;;;;;;;8.32;2.47;;;;;;;;;;5005577;28;20093;-63
2021/06/24 09:23:16;;;;;;;7.68;3.15;;;;;;;;;;5011437;28;20061;-63
2021/06/24 09:25:44;;;;;;;13.25;2.58;;;;;;;;;;5019218;28;20168;-64
2021/06/24 09:28:10;;;;;;;7.63;2.85;;;;;;;;;;5016361;28;20053;-63
2021/06/24 09:30:39;;;;;;;6.43;3.35;;;;;;;;;;5016556;28;20026;-63
2021/06/24 09:33:10;;;;;;;20.02;7.75;;;;;;;;;;5016013;28;20029;-63
2021/06/24 09:35:36;;;;;;;14.10;4.53;;;;;;;;;;5017282;28;20680;-63
2021/06/24 09:38:09;;;;;;;12.65;2.97;;;;;;;;;;5016815;28;20448;-64
2021/06/24 09:40:47;;;;;;;7.25;3.08;;;;;;;;;;5025297;28;20040;-64
2021/06/24 09:43:28;;;;;;;13.60;3.97;;;;;;;;;;5018334;28;20025;-63
2021/06/24 09:46:07;;;;;;;9.47;3.00;;;;;;;;;;5021718;28;20090;-64
2021/06/24 09:48:39;;;;;;;8.07;2.90;;;;;;;;;;5022323;28;20539;-63
2021/06/24 09:51:09;;;;;;;9.05;2.92;;;;;;;;;;5015502;28;20029;-63
2021/06/24 09:53:49;;;;;;;4.50;2.60;;;;;;;;;;5018346;28;20025;-64
2021/06/24 09:56:23;;;;;;;6.93;3.33;;;;;;;;;;5016531;28;20021;-62
2021/06/24 09:58:49;;;;;;;14.18;2.95;;;;;;;;;;5012104;28;20504;-64
2021/06/24 10:01:42;;;;;;;15.48;3.25;;;;;;;;;;5015826;28;20033;-63
2021/06/24 10:04:36;;;;;;;8.55;3.08;;;;;;;;;;5013585;28;20033;-63
2021/06/24 10:07:05;;;;;;;8.27;3.13;;;;;;;;;;5016379;28;20033;-64
2021/06/24 10:09:32;;;;;;;9.38;2.92;;;;;;;;;;5015779;28;20378;-64
2021/06/24 10:11:58;;;;;;;4.93;2.33;;;;;;;;;;5018400;28;20030;-64
2021/06/24 10:14:24;;;;;;;12.93;2.92;;;;;;;;;;5015010;28;20059;-62
2021/06/24 10:16:52;;;;;;;8.77;2.90;;;;;;;;;;5016814;28;20033;-62
2021/06/24 10:19:23;;;;;;;16.02;3.22;;;;;;;;;;5015837;28;20512;-61
2021/06/24 10:21:52;;;;;;;7.00;3.30;;;;;;;;;;5013132;28;20308;-62
2021/06/24 10:24:21;;;;;;;6.93;2.80;;;;;;;;;;5020946;28;20033;-61
2021/06/24 10:26:51;;;;;;;7.47;2.55;;;;;;;;;;5014715;28;20076;-62
2021/06/24 10:29:22;;;;;;;10.25;2.63;;;;;;;;;;5018576;28;20018;-61
2021/06/24 10:31:55;;;;;;;6.32;2.80;;;;;;;;;;5018091;28;20029;-60
2021/06/24 10:34:21;;;;;;;7.75;2.38;;;;;;;;;;5016311;28;20048;-60
2021/06/24 10:37:08;;;;;;;11.43;2.53;;;;;;;;;;5025664;28;20440;-59
2021/06/24 10:39:35;;;;;;;11.57;3.40;;;;;;;;;;5014778;28;20037;-60
2021/06/24 10:42:06;;;;;;;12.00;3.42;;;;;;;;;;5017252;28;20542;-62
2021/06/24 10:44:51;;;;;;;7.28;2.55;;;;;;;;;;5023324;28;20079;-62
2021/06/24 10:47:39;;;;;;;9.55;2.85;;;;;;;;;;5019571;28;20039;-63
2021/06/24 10:50:27;;;;;;;8.18;2.58;;;;;;;;;;5017053;28;20448;-62
2021/06/24 10:52:56;;;;;;;11.07;3.33;;;;;;;;;;5017312;28;20120;-62
2021/06/24 10:55:37;;;;;;;9.45;2.55;;;;;;;;;;5014158;28;20492;-62
2021/06/24 10:58:28;;;;;;;5.32;3.25;;;;;;;;;;5018254;28;20029;-60
2021/06/24 11:00:56;;;;;;;7.40;2.60;;;;;;;;;;5016617;28;20075;-61
2021/06/24 11:03:30;;;;;;;6.35;2.38;;;;;;;;;;5021918;28;20646;-61
2021/06/24 11:06:11;;;;;;;10.73;2.47;;;;;;;;;;5017843;28;20028;-61
2021/06/24 11:08:41;;;;;;;5.85;2.63;;;;;;;;;;5020911;28;20022;-60
2021/06/24 11:11:14;;;;;;;5.50;2.40;;;;;;;;;;5021190;28;20495;-61
2021/06/24 11:16:15;;;;;;;4.88;2.42;;;;;;;;;;5020987;28;20056;-60
2021/06/24 11:18:40;;;;;;;4.60;2.25;;;;;;;;;;5021160;28;20039;-61
2021/06/24 11:21:22;;;;;;;9.43;2.15;;;;;;;;;;5019946;28;20468;-60
2021/06/24 11:23:49;;;;;;;6.53;2.30;;;;;;;;;;5014338;28;20033;-60
2021/06/24 11:26:29;;;;;;;6.57;2.35;;;;;;;;;;5019416;28;20033;-61
2021/06/24 11:29:03;;;;;;;4.78;2.47;;;;;;;;;;5013624;28;20030;-62
2021/06/24 11:31:43;;;;;;;4.70;2.40;;;;;;;;;;5021655;28;20438;-61
2021/06/24 11:37:05;;;;;;;16.17;2.72;;;;;;;;;;5015563;28;20033;-63
2021/06/24 11:39:40;;;;;;;6.25;2.53;;;;;;;;;;5015931;28;20111;-62
2021/06/24 11:42:11;;;;;;;6.18;2.30;;;;;;;;;;5021325;28;20029;-61
2021/06/24 11:44:46;;;;;;;10.77;3.03;;;;;;;;;;5022283;28;20022;-62
2021/06/24 11:47:17;;;;;;;7.97;2.85;;;;;;;;;;5016952;28;20064;-62
2021/06/24 12:03:25;;;;;;;6.30;3.00;;;;;;;;;;5015300;28;20028;-62
2021/06/24 12:05:55;;;;;;;7.82;3.35;;;;;;;;;;5019481;28;20034;-62
2021/06/24 12:08:25;;;;;;;11.10;2.90;;;;;;;;;;5019287;28;20085;-62
2021/06/24 12:11:05;;;;;;;5.97;3.10;;;;;;;;;;5019596;28;20500;-63
2021/06/24 12:13:33;;;;;;;5.47;2.50;;;;;;;;;;5018003;28;20493;-62
2021/06/24 12:16:00;;;;;;;8.95;2.92;;;;;;;;;;5016589;28;20021;-61
2021/06/24 12:18:42;;;;;;;7.50;2.72;;;;;;;;;;5017574;28;20021;-62
2021/06/24 12:21:13;;;;;;;6.45;2.45;;;;;;;;;;5018561;28;20044;-62
2021/06/24 12:23:43;;;;;;;8.65;2.90;;;;;;;;;;5013466;28;20151;-62
2021/06/24 12:26:10;;;;;;;4.63;2.88;;;;;;;;;;5020263;28;20108;-62
2021/06/24 12:28:36;;;;;;;6.35;3.80;;;;;;;;;;5016105;28;20021;-61
2021/06/24 12:31:03;;;;;;;6.50;3.20;;;;;;;;;;5009683;28;20046;-61
2021/06/24 12:33:29;;;;;;;10.20;3.10;;;;;;;;;;5019038;28;20034;-61
2021/06/24 12:35:55;;;;;;;7.95;2.88;;;;;;;;;;5017126;28;20033;-61
2021/06/24 12:38:24;;;;;;;5.72;2.50;;;;;;;;;;5017961;28;20017;-62
2021/06/24 12:40:53;;;;;;;7.85;3.30;;;;;;;;;;5010177;28;20037;-61
2021/06/24 12:43:32;;;;;;;5.00;3.10;;;;;;;;;;5017938;28;20025;-61
2021/06/24 12:45:59;;;;;;;6.10;2.88;;;;;;;;;;5015936;28;20610;-61
2021/06/24 12:48:31;;;;;;;7.85;3.00;;;;;;;;;;5017261;28;20022;-61
2021/06/24 12:51:03;;;;;;;4.38;2.63;;;;;;;;;;5016610;28;20533;-60
2021/06/24 12:53:30;;;;;;;6.13;2.60;;;;;;;;;;5023994;28;20451;-61
2021/06/24 12:55:56;;;;;;;6.30;2.58;;;;;;;;;;5016789;28;20036;-60
2021/06/24 12:58:21;;;;;;;4.55;3.00;;;;;;;;;;5024617;28;20423;-60
2021/06/24 13:01:14;;;;;;;5.68;3.20;;;;;;;;;;5018409;28;20033;-61
2021/06/24 13:03:39;;;;;;;8.88;4.30;;;;;;;;;;5018233;28;20033;-60
2021/06/24 13:06:18;;;;;;;5.85;3.40;;;;;;;;;;5017900;28;20013;-61
2021/06/24 13:09:06;;;;;;;6.95;3.63;;;;;;;;;;5022668;28;20025;-61
2021/06/24 13:11:33;;;;;;;13.02;3.78;;;;;;;;;;5022107;28;20032;-61
2021/06/24 13:14:13;;;;;;;6.07;4.00;;;;;;;;;;5023217;28;20044;-61
2021/06/24 13:16:46;;;;;;;6.88;3.70;;;;;;;;;;5018205;28;20025;-61
2021/06/24 13:19:27;;;;;;;7.88;3.78;;;;;;;;;;5013230;28;20076;-61
2021/06/24 13:22:03;;;;;;;9.07;3.47;;;;;;;;;;5027030;28;20347;-62
2021/06/24 13:24:45;;;;;;;15.32;4.13;;;;;;;;;;5022478;28;20120;-61
2021/06/24 13:27:16;;;;;;;5.78;3.75;;;;;;;;;;5019844;28;20431;-60
2021/06/24 13:30:07;;;;;;;7.18;3.30;;;;;;;;;;5018909;28;20056;-60
2021/06/24 13:32:38;;;;;;;6.63;3.22;;;;;;;;;;5024316;28;20026;-60
2021/06/24 13:35:13;;;;;;;6.40;3.10;;;;;;;;;;5017395;28;20034;-60
2021/06/24 13:37:50;;;;;;;5.38;3.08;;;;;;;;;;5021002;28;20037;-61
2021/06/24 13:40:21;;;;;;;8.27;3.50;;;;;;;;;;5024099;28;20033;-61
2021/06/24 13:42:50;;;;;;;4.35;3.08;;;;;;;;;;5020796;28;20025;-62
2021/06/24 13:45:16;;;;;;;6.97;3.30;;;;;;;;;;5017446;28;20053;-63
2021/06/24 13:47:42;;;;;;;4.80;3.15;;;;;;;;;;5019922;28;20068;-63
2021/06/24 13:50:07;;;;;;;5.13;2.90;;;;;;;;;;5015752;28;20539;-62
2021/06/24 13:52:33;;;;;;;4.78;3.10;;;;;;;;;;5017001;28;20096;-62
2021/06/24 13:54:59;;;;;;;4.07;2.83;;;;;;;;;;5020382;28;20543;-62
2021/06/24 13:57:25;;;;;;;4.38;2.92;;;;;;;;;;5022114;28;20539;-62
2021/06/24 13:59:51;;;;;;;7.43;2.97;;;;;;;;;;5018670;28;20125;-62
2021/06/24 14:02:16;;;;;;;8.52;3.45;;;;;;;;;;5008701;28;20080;-62
2021/06/24 14:04:42;;;;;;;5.93;2.80;;;;;;;;;;5022786;28;20544;-63
2021/06/24 14:07:07;;;;;;;4.15;2.72;;;;;;;;;;5019822;28;20032;-62
2021/06/24 14:09:33;;;;;;;8.55;2.78;;;;;;;;;;5015781;28;20449;-62
2021/06/24 14:11:58;;;;;;;3.58;2.40;;;;;;;;;;5014849;28;20038;-62
2021/06/24 14:14:24;;;;;;;4.00;2.20;;;;;;;;;;5019575;28;20045;-60
2021/06/24 14:16:49;;;;;;;4.97;2.90;;;;;;;;;;5016574;28;20041;-61
2021/06/24 14:19:15;;;;;;;6.55;2.80;;;;;;;;;;5018329;28;20033;-60
2021/06/24 14:21:40;;;;;;;5.03;2.97;;;;;;;;;;5022729;28;20033;-61
2021/06/24 14:24:06;;;;;;;4.97;2.70;;;;;;;;;;5022134;28;20021;-61
2021/06/24 14:26:34;;;;;;;4.70;2.90;;;;;;;;;;5016918;28;20128;-61
2021/06/24 14:29:00;;;;;;;5.70;2.78;;;;;;;;;;5016028;28;20033;-61
2021/06/24 14:31:26;;;;;;;7.28;2.92;;;;;;;;;;5015428;28;20401;-60
2021/06/24 14:33:52;;;;;;;4.63;2.70;;;;;;;;;;5019963;28;20256;-61
2021/06/24 14:36:20;;;;;;;4.32;2.00;;;;;;;;;;5012941;28;20029;-61
2021/06/24 14:38:45;;;;;;;12.70;2.50;;;;;;;;;;5016695;28;20029;-61
2021/06/24 14:41:12;;;;;;;5.13;2.60;;;;;;;;;;5018332;28;20291;-60
2021/06/24 14:43:39;;;;;;;5.07;2.35;;;;;;;;;;5013276;28;20030;-61
2021/06/24 14:46:07;;;;;;;3.58;1.95;;;;;;;;;;5012722;28;20880;-61
2021/06/24 14:48:34;;;;;;;3.78;2.17;;;;;;;;;;5016505;28;20397;-60
2021/06/24 14:51:00;;;;;;;7.53;2.28;;;;;;;;;;5023666;28;20025;-61
2021/06/24 14:53:26;;;;;;;2.67;2.20;;;;;;;;;;5021319;28;20038;-62
2021/06/24 14:55:52;;;;;;;4.60;2.35;;;;;;;;;;5019081;28;20392;-62
2021/06/24 14:58:17;;;;;;;3.55;1.73;;;;;;;;;;5014136;28;20038;-60